sensor_id;sensor_type;location;lat;lon;timestamp;temperature;humidity
8253;DHT22;61313;48.396;10.008;2022-08-21T00:02:14;18.30;1.00
8253;DHT22;61313;48.396;10.008;2022-08-21T00:04:40;18.30;1.00
8253;DHT22;61313;48.396;10.008;2022-08-21T00:07:06;18.30;1.00
8253;DHT22;61313;48.396;10.008;2022-08-21T00:09:32;18.30;1.00
8253;DHT22;61313;48.396;10.008;2022-08-21T00:11:57;18.20;1.00
8253;DHT22;61313;48.396;10.008;2022-08-21T00:14:23;18.20;1.00
8253;DHT22;61313;48.396;10.008;2022-08-21T00:16:49;18.20;1.00
8253;DHT22;61313;48.396;10.008;2022-08-21T00:19:14;18.20;1.00
8253;DHT22;61313;48.396;10.008;2022-08-21T00:21:40;18.20;1.00
8253;DHT22;61313;48.396;10.008;2022-08-21T00:24:06;18.20;1.00
8253;DHT22;61313;48.396;10.008;2022-08-21T00:26:32;18.10;1.00
8253;DHT22;61313;48.396;10.008;2022-08-21T00:28:58;18.10;1.00
8253;DHT22;61313;48.396;10.008;2022-08-21T00:31:24;18.00;1.00
8253;DHT22;61313;48.396;10.008;2022-08-21T00:33:50;18.10;1.00
8253;DHT22;61313;48.396;10.008;2022-08-21T00:36:15;18.10;1.00
8253;DHT22;61313;48.396;10.008;2022-08-21T00:38:41;18.10;1.00
8253;DHT22;61313;48.396;10.008;2022-08-21T00:41:09;18.10;1.00
8253;DHT22;61313;48.396;10.008;2022-08-21T00:43:36;18.00;1.00
8253;DHT22;61313;48.396;10.008;2022-08-21T00:46:04;18.10;1.00
8253;DHT22;61313;48.396;10.008;2022-08-21T00:48:30;18.10;1.00
8253;DHT22;61313;48.396;10.008;2022-08-21T00:51:10;18.00;1.00
8253;DHT22;61313;48.396;10.008;2022-08-21T00:53:39;18.00;1.00
8253;DHT22;61313;48.396;10.008;2022-08-21T00:56:07;18.00;1.00
8253;DHT22;61313;48.396;10.008;2022-08-21T00:58:35;18.00;1.00
8253;DHT22;61313;48.396;10.008;2022-08-21T01:01:04;17.90;1.00
8253;DHT22;61313;48.396;10.008;2022-08-21T01:03:30;17.90;1.00
8253;DHT22;61313;48.396;10.008;2022-08-21T01:05:56;17.80;1.00
8253;DHT22;61313;48.396;10.008;2022-08-21T01:08:22;17.90;1.00
8253;DHT22;61313;48.396;10.008;2022-08-21T01:10:49;17.80;1.00
8253;DHT22;61313;48.396;10.008;2022-08-21T01:13:17;17.80;1.00
8253;DHT22;61313;48.396;10.008;2022-08-21T01:15:46;17.80;1.00
8253;DHT22;61313;48.396;10.008;2022-08-21T01:18:15;17.80;1.00
8253;DHT22;61313;48.396;10.008;2022-08-21T01:23:12;17.80;1.00
8253;DHT22;61313;48.396;10.008;2022-08-21T01:25:38;17.80;1.00
8253;DHT22;61313;48.396;10.008;2022-08-21T01:28:13;17.70;1.00
8253;DHT22;61313;48.396;10.008;2022-08-21T01:30:40;17.70;1.00
8253;DHT22;61313;48.396;10.008;2022-08-21T01:33:07;17.60;1.00
8253;DHT22;61313;48.396;10.008;2022-08-21T01:35:33;17.60;1.00
8253;DHT22;61313;48.396;10.008;2022-08-21T01:37:59;17.60;1.00
8253;DHT22;61313;48.396;10.008;2022-08-21T01:40:24;17.50;1.00
8253;DHT22;61313;48.396;10.008;2022-08-21T01:42:50;17.50;1.00
8253;DHT22;61313;48.396;10.008;2022-08-21T01:45:16;17.50;1.00
8253;DHT22;61313;48.396;10.008;2022-08-21T01:47:43;17.50;1.00
8253;DHT22;61313;48.396;10.008;2022-08-21T01:50:12;17.50;1.00
8253;DHT22;61313;48.396;10.008;2022-08-21T01:52:39;17.50;1.00
8253;DHT22;61313;48.396;10.008;2022-08-21T01:55:06;17.50;1.00
8253;DHT22;61313;48.396;10.008;2022-08-21T01:57:32;17.50;1.00
8253;DHT22;61313;48.396;10.008;2022-08-21T01:59:58;17.50;1.00
8253;DHT22;61313;48.396;10.008;2022-08-21T02:02:24;17.50;1.00
8253;DHT22;61313;48.396;10.008;2022-08-21T02:04:50;17.50;1.00
8253;DHT22;61313;48.396;10.008;2022-08-21T02:07:16;17.50;1.00
8253;DHT22;61313;48.396;10.008;2022-08-21T02:09:41;17.50;1.00
8253;DHT22;61313;48.396;10.008;2022-08-21T02:12:08;17.40;1.00
8253;DHT22;61313;48.396;10.008;2022-08-21T02:14:34;17.30;1.00
8253;DHT22;61313;48.396;10.008;2022-08-21T02:17:00;17.40;1.00
8253;DHT22;61313;48.396;10.008;2022-08-21T02:19:26;17.50;1.00
8253;DHT22;61313;48.396;10.008;2022-08-21T02:21:52;17.50;1.00
8253;DHT22;61313;48.396;10.008;2022-08-21T02:24:18;17.60;1.00
8253;DHT22;61313;48.396;10.008;2022-08-21T02:26:43;17.60;1.00
8253;DHT22;61313;48.396;10.008;2022-08-21T02:29:09;17.60;1.00
8253;DHT22;61313;48.396;10.008;2022-08-21T02:31:35;17.40;1.00
8253;DHT22;61313;48.396;10.008;2022-08-21T02:34:00;17.50;1.00
8253;DHT22;61313;48.396;10.008;2022-08-21T02:36:26;17.40;1.00
8253;DHT22;61313;48.396;10.008;2022-08-21T02:38:52;17.40;1.00
8253;DHT22;61313;48.396;10.008;2022-08-21T02:41:20;17.30;1.00
8253;DHT22;61313;48.396;10.008;2022-08-21T02:43:46;17.40;1.00
8253;DHT22;61313;48.396;10.008;2022-08-21T02:46:15;17.40;1.00
8253;DHT22;61313;48.396;10.008;2022-08-21T02:48:42;17.30;1.00
8253;DHT22;61313;48.396;10.008;2022-08-21T02:51:15;17.30;1.00
8253;DHT22;61313;48.396;10.008;2022-08-21T02:53:43;17.20;1.00
8253;DHT22;61313;48.396;10.008;2022-08-21T02:56:11;17.20;1.00
8253;DHT22;61313;48.396;10.008;2022-08-21T02:58:42;17.20;1.00
8253;DHT22;61313;48.396;10.008;2022-08-21T03:01:09;17.20;1.00
8253;DHT22;61313;48.396;10.008;2022-08-21T03:03:37;17.20;1.00
8253;DHT22;61313;48.396;10.008;2022-08-21T03:06:05;17.20;1.00
8253;DHT22;61313;48.396;10.008;2022-08-21T03:08:31;17.10;1.00
8253;DHT22;61313;48.396;10.008;2022-08-21T03:10:57;17.10;1.00
8253;DHT22;61313;48.396;10.008;2022-08-21T03:13:25;17.00;1.00
8253;DHT22;61313;48.396;10.008;2022-08-21T03:15:50;17.00;1.00
8253;DHT22;61313;48.396;10.008;2022-08-21T03:18:17;17.10;1.00
8253;DHT22;61313;48.396;10.008;2022-08-21T03:20:43;17.10;1.00
8253;DHT22;61313;48.396;10.008;2022-08-21T03:23:10;17.10;1.00
8253;DHT22;61313;48.396;10.008;2022-08-21T03:25:38;17.20;1.00
8253;DHT22;61313;48.396;10.008;2022-08-21T03:28:06;17.10;1.00
8253;DHT22;61313;48.396;10.008;2022-08-21T03:30:32;17.20;1.00
8253;DHT22;61313;48.396;10.008;2022-08-21T03:32:59;17.20;1.00
8253;DHT22;61313;48.396;10.008;2022-08-21T03:35:26;17.10;1.00
8253;DHT22;61313;48.396;10.008;2022-08-21T03:37:52;17.10;1.00
8253;DHT22;61313;48.396;10.008;2022-08-21T03:40:19;17.20;1.00
8253;DHT22;61313;48.396;10.008;2022-08-21T03:42:46;17.20;1.00
8253;DHT22;61313;48.396;10.008;2022-08-21T03:45:17;17.10;1.00
8253;DHT22;61313;48.396;10.008;2022-08-21T03:50:22;17.00;1.00
8253;DHT22;61313;48.396;10.008;2022-08-21T03:52:48;17.00;1.00
8253;DHT22;61313;48.396;10.008;2022-08-21T03:55:14;17.00;1.00
8253;DHT22;61313;48.396;10.008;2022-08-21T03:57:40;17.00;1.00
8253;DHT22;61313;48.396;10.008;2022-08-21T04:00:06;17.00;1.00
8253;DHT22;61313;48.396;10.008;2022-08-21T04:02:34;17.00;1.00
8253;DHT22;61313;48.396;10.008;2022-08-21T04:04:59;17.00;1.00
8253;DHT22;61313;48.396;10.008;2022-08-21T04:07:25;16.90;1.00
8253;DHT22;61313;48.396;10.008;2022-08-21T04:09:51;17.00;1.00
8253;DHT22;61313;48.396;10.008;2022-08-21T04:12:17;16.90;1.00
8253;DHT22;61313;48.396;10.008;2022-08-21T04:14:42;16.90;1.00
8253;DHT22;61313;48.396;10.008;2022-08-21T04:17:08;16.80;1.00
8253;DHT22;61313;48.396;10.008;2022-08-21T04:19:34;16.70;1.00
8253;DHT22;61313;48.396;10.008;2022-08-21T04:21:59;16.70;1.00
8253;DHT22;61313;48.396;10.008;2022-08-21T04:24:25;16.70;1.00
8253;DHT22;61313;48.396;10.008;2022-08-21T04:26:51;16.60;1.00
8253;DHT22;61313;48.396;10.008;2022-08-21T04:29:17;16.70;1.00
8253;DHT22;61313;48.396;10.008;2022-08-21T04:31:42;16.70;1.00
8253;DHT22;61313;48.396;10.008;2022-08-21T04:34:09;16.60;1.00
8253;DHT22;61313;48.396;10.008;2022-08-21T04:36:35;16.60;1.00
8253;DHT22;61313;48.396;10.008;2022-08-21T04:39:00;16.50;1.00
8253;DHT22;61313;48.396;10.008;2022-08-21T04:41:27;16.50;1.00
8253;DHT22;61313;48.396;10.008;2022-08-21T04:43:53;16.50;1.00
8253;DHT22;61313;48.396;10.008;2022-08-21T04:46:21;16.60;1.00
8253;DHT22;61313;48.396;10.008;2022-08-21T04:48:47;16.50;1.00
8253;DHT22;61313;48.396;10.008;2022-08-21T04:51:19;16.50;1.00
8253;DHT22;61313;48.396;10.008;2022-08-21T04:53:59;16.50;1.00
8253;DHT22;61313;48.396;10.008;2022-08-21T04:57:07;16.40;1.00
8253;DHT22;61313;48.396;10.008;2022-08-21T04:59:43;16.40;1.00
8253;DHT22;61313;48.396;10.008;2022-08-21T05:02:10;16.40;1.00
8253;DHT22;61313;48.396;10.008;2022-08-21T05:04:45;16.40;1.00
8253;DHT22;61313;48.396;10.008;2022-08-21T05:07:16;16.40;1.00
8253;DHT22;61313;48.396;10.008;2022-08-21T05:09:43;16.40;1.00
8253;DHT22;61313;48.396;10.008;2022-08-21T05:12:09;16.40;1.00
8253;DHT22;61313;48.396;10.008;2022-08-21T05:14:35;16.40;1.00
8253;DHT22;61313;48.396;10.008;2022-08-21T05:17:01;16.50;1.00
8253;DHT22;61313;48.396;10.008;2022-08-21T05:19:27;16.50;1.00
8253;DHT22;61313;48.396;10.008;2022-08-21T05:21:53;16.70;1.00
8253;DHT22;61313;48.396;10.008;2022-08-21T05:24:19;16.70;99.90
8253;DHT22;61313;48.396;10.008;2022-08-21T05:26:45;16.60;99.90
8253;DHT22;61313;48.396;10.008;2022-08-21T05:29:12;16.60;99.90
8253;DHT22;61313;48.396;10.008;2022-08-21T05:31:38;16.70;99.90
8253;DHT22;61313;48.396;10.008;2022-08-21T05:34:05;16.90;99.90
8253;DHT22;61313;48.396;10.008;2022-08-21T05:36:31;16.80;99.90
8253;DHT22;61313;48.396;10.008;2022-08-21T05:38:57;16.80;99.90
8253;DHT22;61313;48.396;10.008;2022-08-21T05:41:22;16.80;99.90
8253;DHT22;61313;48.396;10.008;2022-08-21T05:43:48;16.80;50.10
8253;DHT22;61313;48.396;10.008;2022-08-21T05:46:14;16.90;1.00
8253;DHT22;61313;48.396;10.008;2022-08-21T05:48:40;16.90;1.00
8253;DHT22;61313;48.396;10.008;2022-08-21T05:51:13;17.60;99.90
8253;DHT22;61313;48.396;10.008;2022-08-21T05:53:41;18.20;99.90
8253;DHT22;61313;48.396;10.008;2022-08-21T05:56:11;18.80;1.00
8253;DHT22;61313;48.396;10.008;2022-08-21T05:58:37;19.10;1.00
8253;DHT22;61313;48.396;10.008;2022-08-21T06:01:04;19.40;1.00
8253;DHT22;61313;48.396;10.008;2022-08-21T06:03:33;19.60;99.90
8253;DHT22;61313;48.396;10.008;2022-08-21T06:06:00;19.80;99.90
8253;DHT22;61313;48.396;10.008;2022-08-21T06:08:27;20.00;78.30
8253;DHT22;61313;48.396;10.008;2022-08-21T06:10:54;20.40;1.00
8253;DHT22;61313;48.396;10.008;2022-08-21T06:13:21;20.60;1.00
8253;DHT22;61313;48.396;10.008;2022-08-21T06:15:47;20.70;1.00
8253;DHT22;61313;48.396;10.008;2022-08-21T06:18:14;20.80;1.00
8253;DHT22;61313;48.396;10.008;2022-08-21T06:20:40;21.00;1.00
8253;DHT22;61313;48.396;10.008;2022-08-21T06:23:06;21.40;1.00
8253;DHT22;61313;48.396;10.008;2022-08-21T06:25:31;21.70;1.00
8253;DHT22;61313;48.396;10.008;2022-08-21T06:28:06;21.90;1.00
8253;DHT22;61313;48.396;10.008;2022-08-21T06:30:32;22.10;1.00
8253;DHT22;61313;48.396;10.008;2022-08-21T06:32:58;22.10;1.00
8253;DHT22;61313;48.396;10.008;2022-08-21T06:35:24;22.20;1.00
8253;DHT22;61313;48.396;10.008;2022-08-21T06:37:50;22.10;1.00
8253;DHT22;61313;48.396;10.008;2022-08-21T06:40:16;22.10;1.00
8253;DHT22;61313;48.396;10.008;2022-08-21T06:42:42;22.10;1.00
8253;DHT22;61313;48.396;10.008;2022-08-21T06:45:08;22.20;1.00
8253;DHT22;61313;48.396;10.008;2022-08-21T06:47:34;22.40;1.00
8253;DHT22;61313;48.396;10.008;2022-08-21T06:49:59;22.50;1.00
8253;DHT22;61313;48.396;10.008;2022-08-21T06:52:25;22.50;1.00
8253;DHT22;61313;48.396;10.008;2022-08-21T06:54:51;22.80;1.00
8253;DHT22;61313;48.396;10.008;2022-08-21T06:57:17;22.90;99.90
8253;DHT22;61313;48.396;10.008;2022-08-21T06:59:42;23.00;99.90
8253;DHT22;61313;48.396;10.008;2022-08-21T07:02:08;23.00;99.90
8253;DHT22;61313;48.396;10.008;2022-08-21T07:04:34;23.00;99.90
8253;DHT22;61313;48.396;10.008;2022-08-21T07:07:00;23.10;99.90
8253;DHT22;61313;48.396;10.008;2022-08-21T07:09:25;23.20;99.90
8253;DHT22;61313;48.396;10.008;2022-08-21T07:11:55;23.30;99.90
8253;DHT22;61313;48.396;10.008;2022-08-21T07:14:21;23.50;99.90
8253;DHT22;61313;48.396;10.008;2022-08-21T07:16:48;23.50;99.90
8253;DHT22;61313;48.396;10.008;2022-08-21T07:19:13;23.60;99.90
8253;DHT22;61313;48.396;10.008;2022-08-21T07:21:39;23.60;99.90
8253;DHT22;61313;48.396;10.008;2022-08-21T07:24:05;23.70;99.90
8253;DHT22;61313;48.396;10.008;2022-08-21T07:26:31;23.80;99.90
8253;DHT22;61313;48.396;10.008;2022-08-21T07:28:56;24.00;99.90
8253;DHT22;61313;48.396;10.008;2022-08-21T07:31:23;24.20;99.90
8253;DHT22;61313;48.396;10.008;2022-08-21T07:33:50;23.80;99.90
8253;DHT22;61313;48.396;10.008;2022-08-21T07:36:16;23.90;99.90
8253;DHT22;61313;48.396;10.008;2022-08-21T07:38:43;23.80;99.90
8253;DHT22;61313;48.396;10.008;2022-08-21T07:41:18;24.10;99.90
8253;DHT22;61313;48.396;10.008;2022-08-21T07:43:44;24.30;99.90
8253;DHT22;61313;48.396;10.008;2022-08-21T07:46:10;24.50;99.90
8253;DHT22;61313;48.396;10.008;2022-08-21T07:48:36;24.50;99.90
8253;DHT22;61313;48.396;10.008;2022-08-21T07:51:08;24.80;99.90
8253;DHT22;61313;48.396;10.008;2022-08-21T07:53:36;24.90;99.90
8253;DHT22;61313;48.396;10.008;2022-08-21T07:56:02;25.00;99.90
8253;DHT22;61313;48.396;10.008;2022-08-21T07:58:30;25.10;99.90
8253;DHT22;61313;48.396;10.008;2022-08-21T08:00:56;25.20;99.90
8253;DHT22;61313;48.396;10.008;2022-08-21T08:03:21;25.30;99.90
8253;DHT22;61313;48.396;10.008;2022-08-21T08:05:47;25.60;99.90
8253;DHT22;61313;48.396;10.008;2022-08-21T08:08:13;25.60;99.90
8253;DHT22;61313;48.396;10.008;2022-08-21T08:10:39;25.50;99.90
8253;DHT22;61313;48.396;10.008;2022-08-21T08:13:05;25.30;99.90
8253;DHT22;61313;48.396;10.008;2022-08-21T08:15:31;25.30;99.90
8253;DHT22;61313;48.396;10.008;2022-08-21T08:17:57;25.70;99.90
8253;DHT22;61313;48.396;10.008;2022-08-21T08:20:24;25.60;99.90
8253;DHT22;61313;48.396;10.008;2022-08-21T08:22:52;25.40;99.90
8253;DHT22;61313;48.396;10.008;2022-08-21T08:25:19;25.80;99.90
8253;DHT22;61313;48.396;10.008;2022-08-21T08:27:45;26.00;99.90
8253;DHT22;61313;48.396;10.008;2022-08-21T08:30:13;26.20;99.90
8253;DHT22;61313;48.396;10.008;2022-08-21T08:32:40;26.30;99.90
8253;DHT22;61313;48.396;10.008;2022-08-21T08:35:06;26.50;99.90
8253;DHT22;61313;48.396;10.008;2022-08-21T08:37:33;26.40;99.90
8253;DHT22;61313;48.396;10.008;2022-08-21T08:39:59;26.40;99.90
8253;DHT22;61313;48.396;10.008;2022-08-21T08:42:28;26.50;99.90
8253;DHT22;61313;48.396;10.008;2022-08-21T08:45:02;26.20;99.90
8253;DHT22;61313;48.396;10.008;2022-08-21T08:47:30;25.80;99.90
8253;DHT22;61313;48.396;10.008;2022-08-21T08:50:15;26.20;99.90
8253;DHT22;61313;48.396;10.008;2022-08-21T08:53:08;26.60;99.90
8253;DHT22;61313;48.396;10.008;2022-08-21T08:55:38;26.90;99.90
8253;DHT22;61313;48.396;10.008;2022-08-21T08:58:12;26.90;99.90
8253;DHT22;61313;48.396;10.008;2022-08-21T09:00:39;26.60;99.90
8253;DHT22;61313;48.396;10.008;2022-08-21T09:03:05;26.50;99.90
8253;DHT22;61313;48.396;10.008;2022-08-21T09:05:45;26.80;99.90
8253;DHT22;61313;48.396;10.008;2022-08-21T09:08:54;26.80;99.90
8253;DHT22;61313;48.396;10.008;2022-08-21T09:11:57;27.10;99.90
8253;DHT22;61313;48.396;10.008;2022-08-21T09:24:40;25.90;99.90
8253;DHT22;61313;48.396;10.008;2022-08-21T09:27:12;25.70;99.90
8253;DHT22;61313;48.396;10.008;2022-08-21T09:29:41;25.40;99.90
8253;DHT22;61313;48.396;10.008;2022-08-21T09:32:32;25.80;99.90
8253;DHT22;61313;48.396;10.008;2022-08-21T09:35:06;26.10;99.90
8253;DHT22;61313;48.396;10.008;2022-08-21T09:37:44;26.10;99.90
8253;DHT22;61313;48.396;10.008;2022-08-21T09:43:16;26.20;99.90
8253;DHT22;61313;48.396;10.008;2022-08-21T09:45:43;26.40;99.90
8253;DHT22;61313;48.396;10.008;2022-08-21T09:48:24;26.20;99.90
8253;DHT22;61313;48.396;10.008;2022-08-21T09:50:51;26.30;99.90
8253;DHT22;61313;48.396;10.008;2022-08-21T09:53:27;26.30;99.90
8253;DHT22;61313;48.396;10.008;2022-08-21T09:55:59;26.50;99.90
8253;DHT22;61313;48.396;10.008;2022-08-21T09:58:46;26.90;99.90
8253;DHT22;61313;48.396;10.008;2022-08-21T10:01:15;27.30;99.90
8253;DHT22;61313;48.396;10.008;2022-08-21T10:03:41;27.50;99.90
8253;DHT22;61313;48.396;10.008;2022-08-21T10:06:08;27.10;99.90
8253;DHT22;61313;48.396;10.008;2022-08-21T10:08:38;26.70;99.90
8253;DHT22;61313;48.396;10.008;2022-08-21T10:11:13;26.30;99.90
8253;DHT22;61313;48.396;10.008;2022-08-21T10:17:04;25.30;99.90
8253;DHT22;61313;48.396;10.008;2022-08-21T10:19:38;24.70;99.90
8253;DHT22;61313;48.396;10.008;2022-08-21T10:25:01;25.00;99.90
8253;DHT22;61313;48.396;10.008;2022-08-21T10:27:43;24.90;99.90
8253;DHT22;61313;48.396;10.008;2022-08-21T10:31:02;24.80;99.90
8253;DHT22;61313;48.396;10.008;2022-08-21T10:39:13;24.20;99.90
8253;DHT22;61313;48.396;10.008;2022-08-21T10:42:07;24.40;99.90
8253;DHT22;61313;48.396;10.008;2022-08-21T10:57:27;25.00;99.90
8253;DHT22;61313;48.396;10.008;2022-08-21T11:00:18;25.00;99.90
8253;DHT22;61313;48.396;10.008;2022-08-21T11:05:40;24.80;99.90
8253;DHT22;61313;48.396;10.008;2022-08-21T11:08:23;24.70;99.90
8253;DHT22;61313;48.396;10.008;2022-08-21T11:11:02;24.80;99.90
8253;DHT22;61313;48.396;10.008;2022-08-21T11:21:39;25.20;99.90
8253;DHT22;61313;48.396;10.008;2022-08-21T11:24:21;25.10;99.90
8253;DHT22;61313;48.396;10.008;2022-08-21T11:26:59;25.20;99.90
8253;DHT22;61313;48.396;10.008;2022-08-21T11:29:38;25.10;99.90
8253;DHT22;61313;48.396;10.008;2022-08-21T11:35:37;25.50;99.90
8253;DHT22;61313;48.396;10.008;2022-08-21T11:38:05;25.70;99.90
8253;DHT22;61313;48.396;10.008;2022-08-21T11:46:00;25.90;99.90
8253;DHT22;61313;48.396;10.008;2022-08-21T11:48:45;26.10;99.90
8253;DHT22;61313;48.396;10.008;2022-08-21T11:51:22;26.20;99.90
8253;DHT22;61313;48.396;10.008;2022-08-21T11:54:04;26.20;99.90
8253;DHT22;61313;48.396;10.008;2022-08-21T11:56:35;25.70;99.90
8253;DHT22;61313;48.396;10.008;2022-08-21T11:59:11;25.60;99.90
8253;DHT22;61313;48.396;10.008;2022-08-21T12:01:43;25.50;99.90
8253;DHT22;61313;48.396;10.008;2022-08-21T12:06:47;25.70;99.90
8253;DHT22;61313;48.396;10.008;2022-08-21T12:14:45;24.80;99.90
8253;DHT22;61313;48.396;10.008;2022-08-21T12:17:22;24.90;99.90
8253;DHT22;61313;48.396;10.008;2022-08-21T12:20:01;24.90;99.90
8253;DHT22;61313;48.396;10.008;2022-08-21T12:22:38;25.00;99.90
8253;DHT22;61313;48.396;10.008;2022-08-21T12:25:10;25.20;99.90
8253;DHT22;61313;48.396;10.008;2022-08-21T12:27:53;25.50;99.90
8253;DHT22;61313;48.396;10.008;2022-08-21T12:33:03;26.00;99.90
8253;DHT22;61313;48.396;10.008;2022-08-21T12:35:41;26.10;99.90
8253;DHT22;61313;48.396;10.008;2022-08-21T12:38:26;25.70;99.90
8253;DHT22;61313;48.396;10.008;2022-08-21T12:41:05;25.50;99.90
8253;DHT22;61313;48.396;10.008;2022-08-21T12:43:44;25.70;99.90
8253;DHT22;61313;48.396;10.008;2022-08-21T12:46:22;25.80;99.90
8253;DHT22;61313;48.396;10.008;2022-08-21T12:48:54;25.60;99.90
8253;DHT22;61313;48.396;10.008;2022-08-21T12:51:29;25.70;99.90
8253;DHT22;61313;48.396;10.008;2022-08-21T12:53:59;25.60;99.90
8253;DHT22;61313;48.396;10.008;2022-08-21T12:56:30;25.50;99.90
8253;DHT22;61313;48.396;10.008;2022-08-21T12:59:04;25.30;99.90
8253;DHT22;61313;48.396;10.008;2022-08-21T13:04:09;25.40;99.90
8253;DHT22;61313;48.396;10.008;2022-08-21T13:06:42;25.40;99.90
8253;DHT22;61313;48.396;10.008;2022-08-21T13:09:12;25.30;99.90
8253;DHT22;61313;48.396;10.008;2022-08-21T13:11:40;25.10;99.90
8253;DHT22;61313;48.396;10.008;2022-08-21T13:14:52;25.10;99.90
8253;DHT22;61313;48.396;10.008;2022-08-21T13:16:59;25.20;99.90
8253;DHT22;61313;48.396;10.008;2022-08-21T13:19:26;25.30;99.90
8253;DHT22;61313;48.396;10.008;2022-08-21T13:21:52;25.10;99.90
8253;DHT22;61313;48.396;10.008;2022-08-21T13:24:22;25.00;99.90
8253;DHT22;61313;48.396;10.008;2022-08-21T13:26:49;25.00;99.90
8253;DHT22;61313;48.396;10.008;2022-08-21T13:29:18;24.80;99.90
8253;DHT22;61313;48.396;10.008;2022-08-21T13:31:56;24.60;99.90
8253;DHT22;61313;48.396;10.008;2022-08-21T13:34:26;24.50;99.90
8253;DHT22;61313;48.396;10.008;2022-08-21T13:36:59;24.60;99.90
8253;DHT22;61313;48.396;10.008;2022-08-21T13:39:26;24.70;99.90
8253;DHT22;61313;48.396;10.008;2022-08-21T13:41:56;24.80;99.90
8253;DHT22;61313;48.396;10.008;2022-08-21T13:44:32;25.00;99.90
8253;DHT22;61313;48.396;10.008;2022-08-21T13:47:02;25.00;99.90
8253;DHT22;61313;48.396;10.008;2022-08-21T13:49:37;25.00;99.90
8253;DHT22;61313;48.396;10.008;2022-08-21T13:52:04;25.20;99.90
8253;DHT22;61313;48.396;10.008;2022-08-21T13:54:38;25.30;99.90
8253;DHT22;61313;48.396;10.008;2022-08-21T13:57:19;25.40;99.90
8253;DHT22;61313;48.396;10.008;2022-08-21T13:59:46;25.50;99.90
8253;DHT22;61313;48.396;10.008;2022-08-21T14:02:20;25.40;99.90
8253;DHT22;61313;48.396;10.008;2022-08-21T14:05:01;25.40;99.90
8253;DHT22;61313;48.396;10.008;2022-08-21T14:07:31;25.50;99.90
8253;DHT22;61313;48.396;10.008;2022-08-21T14:10:28;25.30;99.90
8253;DHT22;61313;48.396;10.008;2022-08-21T14:12:59;25.50;99.90
8253;DHT22;61313;48.396;10.008;2022-08-21T14:15:28;25.50;99.90
8253;DHT22;61313;48.396;10.008;2022-08-21T14:18:13;25.30;99.90
8253;DHT22;61313;48.396;10.008;2022-08-21T14:20:39;25.10;99.90
8253;DHT22;61313;48.396;10.008;2022-08-21T14:23:05;25.10;99.90
8253;DHT22;61313;48.396;10.008;2022-08-21T14:25:39;25.10;99.90
8253;DHT22;61313;48.396;10.008;2022-08-21T14:28:27;25.20;99.90
8253;DHT22;61313;48.396;10.008;2022-08-21T14:30:55;25.40;99.90
8253;DHT22;61313;48.396;10.008;2022-08-21T14:33:29;25.50;99.90
8253;DHT22;61313;48.396;10.008;2022-08-21T14:35:56;25.20;99.90
8253;DHT22;61313;48.396;10.008;2022-08-21T14:38:24;25.30;99.90
8253;DHT22;61313;48.396;10.008;2022-08-21T14:40:54;25.50;99.90
8253;DHT22;61313;48.396;10.008;2022-08-21T14:43:20;25.70;99.90
8253;DHT22;61313;48.396;10.008;2022-08-21T14:45:47;25.50;99.90
8253;DHT22;61313;48.396;10.008;2022-08-21T14:48:13;25.70;99.90
8253;DHT22;61313;48.396;10.008;2022-08-21T14:50:39;25.80;99.90
8253;DHT22;61313;48.396;10.008;2022-08-21T14:53:05;25.90;99.90
8253;DHT22;61313;48.396;10.008;2022-08-21T14:55:32;25.90;99.90
8253;DHT22;61313;48.396;10.008;2022-08-21T14:58:21;26.20;99.90
8253;DHT22;61313;48.396;10.008;2022-08-21T15:00:49;26.30;99.90
8253;DHT22;61313;48.396;10.008;2022-08-21T15:03:15;26.40;99.90
8253;DHT22;61313;48.396;10.008;2022-08-21T15:05:41;26.30;99.90
8253;DHT22;61313;48.396;10.008;2022-08-21T15:08:07;26.10;99.90
8253;DHT22;61313;48.396;10.008;2022-08-21T15:10:33;25.90;99.90
8253;DHT22;61313;48.396;10.008;2022-08-21T15:13:00;26.00;99.90
8253;DHT22;61313;48.396;10.008;2022-08-21T15:15:25;26.10;99.90
8253;DHT22;61313;48.396;10.008;2022-08-21T15:17:51;25.90;99.90
8253;DHT22;61313;48.396;10.008;2022-08-21T15:20:17;25.90;99.90
8253;DHT22;61313;48.396;10.008;2022-08-21T15:22:44;25.80;99.90
8253;DHT22;61313;48.396;10.008;2022-08-21T15:25:10;25.70;99.90
8253;DHT22;61313;48.396;10.008;2022-08-21T15:27:35;25.50;99.90
8253;DHT22;61313;48.396;10.008;2022-08-21T15:30:03;25.40;99.90
8253;DHT22;61313;48.396;10.008;2022-08-21T15:32:29;25.40;99.90
8253;DHT22;61313;48.396;10.008;2022-08-21T15:34:56;25.40;99.90
8253;DHT22;61313;48.396;10.008;2022-08-21T15:37:23;25.60;99.90
8253;DHT22;61313;48.396;10.008;2022-08-21T15:39:50;25.50;99.90
8253;DHT22;61313;48.396;10.008;2022-08-21T15:42:17;25.50;99.90
8253;DHT22;61313;48.396;10.008;2022-08-21T15:44:43;25.60;99.90
8253;DHT22;61313;48.396;10.008;2022-08-21T15:47:14;25.90;99.90
8253;DHT22;61313;48.396;10.008;2022-08-21T15:49:41;25.90;99.90
8253;DHT22;61313;48.396;10.008;2022-08-21T15:52:11;25.70;99.90
8253;DHT22;61313;48.396;10.008;2022-08-21T15:54:37;25.50;99.90
8253;DHT22;61313;48.396;10.008;2022-08-21T15:57:03;25.40;99.90
8253;DHT22;61313;48.396;10.008;2022-08-21T15:59:30;25.50;99.90
8253;DHT22;61313;48.396;10.008;2022-08-21T16:01:57;25.70;99.90
8253;DHT22;61313;48.396;10.008;2022-08-21T16:04:27;25.80;99.90
8253;DHT22;61313;48.396;10.008;2022-08-21T16:06:54;25.80;99.90
8253;DHT22;61313;48.396;10.008;2022-08-21T16:09:20;25.90;99.90
8253;DHT22;61313;48.396;10.008;2022-08-21T16:11:46;25.90;99.90
8253;DHT22;61313;48.396;10.008;2022-08-21T16:14:15;25.80;99.90
8253;DHT22;61313;48.396;10.008;2022-08-21T16:16:41;25.70;99.60
8253;DHT22;61313;48.396;10.008;2022-08-21T16:19:07;25.70;99.90
8253;DHT22;61313;48.396;10.008;2022-08-21T16:21:34;25.70;99.90
8253;DHT22;61313;48.396;10.008;2022-08-21T16:24:00;25.70;99.90
8253;DHT22;61313;48.396;10.008;2022-08-21T16:26:27;25.60;99.90
8253;DHT22;61313;48.396;10.008;2022-08-21T16:28:56;25.50;99.90
8253;DHT22;61313;48.396;10.008;2022-08-21T16:31:23;25.30;99.90
8253;DHT22;61313;48.396;10.008;2022-08-21T16:33:51;25.10;99.90
8253;DHT22;61313;48.396;10.008;2022-08-21T16:36:19;25.00;99.90
8253;DHT22;61313;48.396;10.008;2022-08-21T16:38:45;24.90;99.90
8253;DHT22;61313;48.396;10.008;2022-08-21T16:41:16;24.90;99.90
8253;DHT22;61313;48.396;10.008;2022-08-21T16:43:43;25.00;99.90
8253;DHT22;61313;48.396;10.008;2022-08-21T16:46:12;25.00;99.90
8253;DHT22;61313;48.396;10.008;2022-08-21T16:48:39;25.00;99.90
8253;DHT22;61313;48.396;10.008;2022-08-21T16:51:06;25.00;99.90
8253;DHT22;61313;48.396;10.008;2022-08-21T16:53:32;25.10;99.90
8253;DHT22;61313;48.396;10.008;2022-08-21T16:55:58;25.10;99.90
8253;DHT22;61313;48.396;10.008;2022-08-21T16:58:33;25.10;99.90
8253;DHT22;61313;48.396;10.008;2022-08-21T17:01:03;25.20;99.90
8253;DHT22;61313;48.396;10.008;2022-08-21T17:03:33;25.20;99.90
8253;DHT22;61313;48.396;10.008;2022-08-21T17:06:01;25.20;99.90
8253;DHT22;61313;48.396;10.008;2022-08-21T17:08:27;25.20;99.90